sensor_id;sensor_type;location;lat;lon;timestamp;P1;durP1;ratioP1;P2;durP2;ratioP2
22679;SDS011;11507;44.858;10.374;2023-06-26T00:00:16;11.48;;;6.82;;
22679;SDS011;11507;44.858;10.374;2023-06-26T00:02:44;8.85;;;6.25;;
22679;SDS011;11507;44.858;10.374;2023-06-26T00:05:10;12.93;;;7.45;;
22679;SDS011;11507;44.858;10.374;2023-06-26T00:07:36;10.15;;;5.97;;
22679;SDS011;11507;44.858;10.374;2023-06-26T00:10:02;10.80;;;6.45;;
22679;SDS011;11507;44.858;10.374;2023-06-26T00:12:29;8.75;;;5.97;;
22679;SDS011;11507;44.858;10.374;2023-06-26T00:14:55;8.50;;;6.03;;
22679;SDS011;11507;44.858;10.374;2023-06-26T00:17:21;9.30;;;6.57;;
22679;SDS011;11507;44.858;10.374;2023-06-26T00:19:47;9.15;;;5.82;;
22679;SDS011;11507;44.858;10.374;2023-06-26T00:22:13;8.48;;;5.72;;
22679;SDS011;11507;44.858;10.374;2023-06-26T00:24:41;9.07;;;6.13;;
22679;SDS011;11507;44.858;10.374;2023-06-26T00:27:06;11.90;;;6.15;;
22679;SDS011;11507;44.858;10.374;2023-06-26T00:29:33;10.07;;;5.90;;
22679;SDS011;11507;44.858;10.374;2023-06-26T00:31:59;9.55;;;6.35;;
22679;SDS011;11507;44.858;10.374;2023-06-26T00:34:25;9.60;;;6.55;;
22679;SDS011;11507;44.858;10.374;2023-06-26T00:36:51;10.70;;;6.13;;
22679;SDS011;11507;44.858;10.374;2023-06-26T00:39:17;9.85;;;6.75;;
22679;SDS011;11507;44.858;10.374;2023-06-26T00:41:43;9.52;;;5.90;;
22679;SDS011;11507;44.858;10.374;2023-06-26T00:44:10;9.10;;;6.30;;
22679;SDS011;11507;44.858;10.374;2023-06-26T00:46:36;11.25;;;6.75;;
22679;SDS011;11507;44.858;10.374;2023-06-26T00:49:02;9.10;;;6.30;;
22679;SDS011;11507;44.858;10.374;2023-06-26T00:51:29;9.43;;;6.28;;
22679;SDS011;11507;44.858;10.374;2023-06-26T00:53:56;14.13;;;6.70;;
22679;SDS011;11507;44.858;10.374;2023-06-26T00:56:23;10.52;;;6.68;;
22679;SDS011;11507;44.858;10.374;2023-06-26T00:58:49;8.55;;;6.03;;
22679;SDS011;11507;44.858;10.374;2023-06-26T01:01:15;10.77;;;6.78;;
22679;SDS011;11507;44.858;10.374;2023-06-26T01:03:48;10.40;;;5.90;;
22679;SDS011;11507;44.858;10.374;2023-06-26T01:06:19;11.27;;;6.95;;
22679;SDS011;11507;44.858;10.374;2023-06-26T01:08:48;10.57;;;6.63;;
22679;SDS011;11507;44.858;10.374;2023-06-26T01:11:17;9.82;;;6.70;;
22679;SDS011;11507;44.858;10.374;2023-06-26T01:13:44;10.60;;;7.13;;
22679;SDS011;11507;44.858;10.374;2023-06-26T01:16:10;8.35;;;6.22;;
22679;SDS011;11507;44.858;10.374;2023-06-26T01:18:38;11.52;;;7.70;;
22679;SDS011;11507;44.858;10.374;2023-06-26T01:21:07;13.35;;;6.68;;
22679;SDS011;11507;44.858;10.374;2023-06-26T01:23:42;9.50;;;7.03;;
22679;SDS011;11507;44.858;10.374;2023-06-26T01:26:20;13.60;;;7.32;;
22679;SDS011;11507;44.858;10.374;2023-06-26T01:28:48;10.43;;;6.93;;
22679;SDS011;11507;44.858;10.374;2023-06-26T01:31:16;11.18;;;7.85;;
22679;SDS011;11507;44.858;10.374;2023-06-26T01:33:42;14.38;;;7.60;;
22679;SDS011;11507;44.858;10.374;2023-06-26T01:36:09;13.20;;;7.47;;
22679;SDS011;11507;44.858;10.374;2023-06-26T01:38:35;10.68;;;6.90;;
22679;SDS011;11507;44.858;10.374;2023-06-26T01:41:02;12.63;;;6.85;;
22679;SDS011;11507;44.858;10.374;2023-06-26T01:43:31;11.18;;;7.20;;
22679;SDS011;11507;44.858;10.374;2023-06-26T01:46:22;9.63;;;7.22;;
22679;SDS011;11507;44.858;10.374;2023-06-26T01:49:04;10.27;;;6.68;;
22679;SDS011;11507;44.858;10.374;2023-06-26T01:51:34;11.95;;;6.95;;
22679;SDS011;11507;44.858;10.374;2023-06-26T01:54:03;11.50;;;7.25;;
22679;SDS011;11507;44.858;10.374;2023-06-26T01:56:36;10.15;;;6.95;;
22679;SDS011;11507;44.858;10.374;2023-06-26T01:59:05;11.13;;;6.90;;
22679;SDS011;11507;44.858;10.374;2023-06-26T02:01:33;10.85;;;6.82;;
22679;SDS011;11507;44.858;10.374;2023-06-26T02:03:59;10.98;;;6.70;;
22679;SDS011;11507;44.858;10.374;2023-06-26T02:06:26;10.73;;;7.07;;
22679;SDS011;11507;44.858;10.374;2023-06-26T02:08:52;10.18;;;6.57;;
22679;SDS011;11507;44.858;10.374;2023-06-26T02:11:17;9.27;;;6.68;;
22679;SDS011;11507;44.858;10.374;2023-06-26T02:13:43;10.73;;;7.13;;
22679;SDS011;11507;44.858;10.374;2023-06-26T02:16:09;10.55;;;7.47;;
22679;SDS011;11507;44.858;10.374;2023-06-26T02:18:35;12.20;;;7.78;;
22679;SDS011;11507;44.858;10.374;2023-06-26T02:21:03;12.40;;;8.65;;
22679;SDS011;11507;44.858;10.374;2023-06-26T02:23:29;11.00;;;7.75;;
22679;SDS011;11507;44.858;10.374;2023-06-26T02:25:56;11.52;;;7.55;;
22679;SDS011;11507;44.858;10.374;2023-06-26T02:28:22;15.02;;;7.30;;
22679;SDS011;11507;44.858;10.374;2023-06-26T02:30:48;12.55;;;7.88;;
22679;SDS011;11507;44.858;10.374;2023-06-26T02:33:13;11.68;;;7.80;;
22679;SDS011;11507;44.858;10.374;2023-06-26T02:35:39;11.88;;;7.40;;
22679;SDS011;11507;44.858;10.374;2023-06-26T02:38:05;10.30;;;7.38;;
22679;SDS011;11507;44.858;10.374;2023-06-26T02:40:31;12.00;;;7.40;;
22679;SDS011;11507;44.858;10.374;2023-06-26T02:42:59;12.75;;;8.02;;
22679;SDS011;11507;44.858;10.374;2023-06-26T02:45:25;11.98;;;8.15;;
22679;SDS011;11507;44.858;10.374;2023-06-26T02:47:50;11.40;;;8.05;;
22679;SDS011;11507;44.858;10.374;2023-06-26T02:50:16;13.68;;;8.90;;
22679;SDS011;11507;44.858;10.374;2023-06-26T02:53:01;16.65;;;10.15;;
22679;SDS011;11507;44.858;10.374;2023-06-26T02:55:27;13.88;;;9.80;;
22679;SDS011;11507;44.858;10.374;2023-06-26T02:57:54;18.45;;;10.68;;
22679;SDS011;11507;44.858;10.374;2023-06-26T03:00:20;14.77;;;10.55;;
22679;SDS011;11507;44.858;10.374;2023-06-26T03:02:49;15.95;;;10.60;;
22679;SDS011;11507;44.858;10.374;2023-06-26T03:05:17;13.07;;;9.93;;
22679;SDS011;11507;44.858;10.374;2023-06-26T03:07:43;17.85;;;10.20;;
22679;SDS011;11507;44.858;10.374;2023-06-26T03:10:10;13.90;;;10.43;;
22679;SDS011;11507;44.858;10.374;2023-06-26T03:12:35;13.50;;;7.82;;
22679;SDS011;11507;44.858;10.374;2023-06-26T03:15:01;13.40;;;8.50;;
22679;SDS011;11507;44.858;10.374;2023-06-26T03:17:28;16.05;;;10.15;;
22679;SDS011;11507;44.858;10.374;2023-06-26T03:19:59;14.60;;;9.32;;
22679;SDS011;11507;44.858;10.374;2023-06-26T03:22:49;14.60;;;9.40;;
22679;SDS011;11507;44.858;10.374;2023-06-26T03:25:16;12.40;;;8.75;;
22679;SDS011;11507;44.858;10.374;2023-06-26T03:27:42;13.20;;;7.88;;
22679;SDS011;11507;44.858;10.374;2023-06-26T03:30:09;13.23;;;8.02;;
22679;SDS011;11507;44.858;10.374;2023-06-26T03:32:38;14.40;;;7.93;;
22679;SDS011;11507;44.858;10.374;2023-06-26T03:35:04;12.43;;;7.95;;
22679;SDS011;11507;44.858;10.374;2023-06-26T03:37:31;12.85;;;7.75;;
22679;SDS011;11507;44.858;10.374;2023-06-26T03:39:57;13.05;;;7.55;;
22679;SDS011;11507;44.858;10.374;2023-06-26T03:42:23;11.07;;;7.03;;
22679;SDS011;11507;44.858;10.374;2023-06-26T03:44:49;11.27;;;7.32;;
22679;SDS011;11507;44.858;10.374;2023-06-26T03:47:17;10.52;;;6.82;;
22679;SDS011;11507;44.858;10.374;2023-06-26T03:49:43;13.45;;;8.98;;
22679;SDS011;11507;44.858;10.374;2023-06-26T03:52:09;13.38;;;9.35;;
22679;SDS011;11507;44.858;10.374;2023-06-26T03:54:35;13.85;;;9.05;;
22679;SDS011;11507;44.858;10.374;2023-06-26T03:57:01;11.52;;;8.27;;
22679;SDS011;11507;44.858;10.374;2023-06-26T03:59:27;11.73;;;8.20;;
22679;SDS011;11507;44.858;10.374;2023-06-26T04:01:53;13.55;;;8.98;;
22679;SDS011;11507;44.858;10.374;2023-06-26T04:04:19;12.55;;;7.78;;
22679;SDS011;11507;44.858;10.374;2023-06-26T04:06:45;15.32;;;9.05;;
22679;SDS011;11507;44.858;10.374;2023-06-26T04:09:11;13.35;;;7.93;;
22679;SDS011;11507;44.858;10.374;2023-06-26T04:11:37;10.88;;;7.40;;
22679;SDS011;11507;44.858;10.374;2023-06-26T04:14:03;12.48;;;7.63;;
22679;SDS011;11507;44.858;10.374;2023-06-26T04:16:28;11.63;;;7.40;;
22679;SDS011;11507;44.858;10.374;2023-06-26T04:18:54;10.02;;;7.40;;
22679;SDS011;11507;44.858;10.374;2023-06-26T04:21:21;11.15;;;7.60;;
22679;SDS011;11507;44.858;10.374;2023-06-26T04:23:50;14.23;;;7.57;;
22679;SDS011;11507;44.858;10.374;2023-06-26T04:26:16;12.48;;;7.25;;
22679;SDS011;11507;44.858;10.374;2023-06-26T04:28:42;11.68;;;7.32;;
22679;SDS011;11507;44.858;10.374;2023-06-26T04:31:08;11.05;;;7.28;;
22679;SDS011;11507;44.858;10.374;2023-06-26T04:33:34;12.25;;;7.32;;
22679;SDS011;11507;44.858;10.374;2023-06-26T04:36:04;10.00;;;6.93;;
22679;SDS011;11507;44.858;10.374;2023-06-26T04:38:31;13.15;;;7.15;;
22679;SDS011;11507;44.858;10.374;2023-06-26T04:40:58;14.38;;;7.18;;
22679;SDS011;11507;44.858;10.374;2023-06-26T04:43:24;10.70;;;7.20;;
22679;SDS011;11507;44.858;10.374;2023-06-26T04:45:49;13.18;;;7.63;;
22679;SDS011;11507;44.858;10.374;2023-06-26T04:48:15;10.75;;;7.50;;
22679;SDS011;11507;44.858;10.374;2023-06-26T04:50:41;11.95;;;7.55;;
22679;SDS011;11507;44.858;10.374;2023-06-26T04:53:07;17.10;;;8.38;;
22679;SDS011;11507;44.858;10.374;2023-06-26T04:55:35;12.15;;;8.25;;
22679;SDS011;11507;44.858;10.374;2023-06-26T04:58:00;12.80;;;8.60;;
22679;SDS011;11507;44.858;10.374;2023-06-26T05:00:26;12.00;;;7.68;;
22679;SDS011;11507;44.858;10.374;2023-06-26T05:02:52;12.20;;;8.10;;
22679;SDS011;11507;44.858;10.374;2023-06-26T05:05:25;14.50;;;8.70;;
22679;SDS011;11507;44.858;10.374;2023-06-26T05:07:53;15.63;;;8.50;;
22679;SDS011;11507;44.858;10.374;2023-06-26T05:10:20;11.82;;;8.00;;
22679;SDS011;11507;44.858;10.374;2023-06-26T05:12:46;11.32;;;8.00;;
22679;SDS011;11507;44.858;10.374;2023-06-26T05:15:12;12.38;;;7.90;;
22679;SDS011;11507;44.858;10.374;2023-06-26T05:17:38;14.90;;;8.27;;
22679;SDS011;11507;44.858;10.374;2023-06-26T05:20:04;15.02;;;8.73;;
22679;SDS011;11507;44.858;10.374;2023-06-26T05:22:34;14.35;;;8.70;;
22679;SDS011;11507;44.858;10.374;2023-06-26T05:25:04;11.55;;;8.00;;
22679;SDS011;11507;44.858;10.374;2023-06-26T05:27:31;12.15;;;8.32;;
22679;SDS011;11507;44.858;10.374;2023-06-26T05:29:57;11.23;;;7.45;;
22679;SDS011;11507;44.858;10.374;2023-06-26T05:32:23;10.23;;;7.25;;
22679;SDS011;11507;44.858;10.374;2023-06-26T05:34:50;11.43;;;7.28;;
22679;SDS011;11507;44.858;10.374;2023-06-26T05:37:20;10.75;;;6.97;;
22679;SDS011;11507;44.858;10.374;2023-06-26T05:39:47;8.73;;;6.28;;
22679;SDS011;11507;44.858;10.374;2023-06-26T05:42:13;10.25;;;6.60;;
22679;SDS011;11507;44.858;10.374;2023-06-26T05:44:40;10.70;;;6.82;;
22679;SDS011;11507;44.858;10.374;2023-06-26T05:47:06;11.57;;;7.10;;
22679;SDS011;11507;44.858;10.374;2023-06-26T05:49:33;10.48;;;7.32;;
22679;SDS011;11507;44.858;10.374;2023-06-26T05:51:59;10.45;;;7.22;;
22679;SDS011;11507;44.858;10.374;2023-06-26T05:54:25;10.88;;;7.53;;
22679;SDS011;11507;44.858;10.374;2023-06-26T05:56:52;13.73;;;8.00;;
22679;SDS011;11507;44.858;10.374;2023-06-26T05:59:24;12.27;;;8.48;;
22679;SDS011;11507;44.858;10.374;2023-06-26T06:01:52;12.70;;;8.85;;
22679;SDS011;11507;44.858;10.374;2023-06-26T06:04:18;11.73;;;8.30;;
22679;SDS011;11507;44.858;10.374;2023-06-26T06:06:43;11.40;;;8.52;;
22679;SDS011;11507;44.858;10.374;2023-06-26T06:09:09;12.10;;;8.45;;
22679;SDS011;11507;44.858;10.374;2023-06-26T06:11:35;11.20;;;7.75;;
22679;SDS011;11507;44.858;10.374;2023-06-26T06:14:02;12.52;;;8.05;;
22679;SDS011;11507;44.858;10.374;2023-06-26T06:16:28;15.05;;;8.52;;
22679;SDS011;11507;44.858;10.374;2023-06-26T06:18:54;13.45;;;8.63;;
22679;SDS011;11507;44.858;10.374;2023-06-26T06:21:20;10.30;;;7.57;;
22679;SDS011;11507;44.858;10.374;2023-06-26T06:23:47;10.68;;;7.53;;
22679;SDS011;11507;44.858;10.374;2023-06-26T06:26:13;14.27;;;8.13;;
22679;SDS011;11507;44.858;10.374;2023-06-26T06:28:39;11.77;;;7.72;;
22679;SDS011;11507;44.858;10.374;2023-06-26T06:31:05;10.43;;;7.55;;
22679;SDS011;11507;44.858;10.374;2023-06-26T06:33:31;15.48;;;8.43;;
22679;SDS011;11507;44.858;10.374;2023-06-26T06:35:57;11.80;;;8.43;;
22679;SDS011;11507;44.858;10.374;2023-06-26T06:38:23;11.68;;;7.78;;
22679;SDS011;11507;44.858;10.374;2023-06-26T06:40:50;16.42;;;7.95;;
22679;SDS011;11507;44.858;10.374;2023-06-26T06:43:16;13.20;;;8.18;;
22679;SDS011;11507;44.858;10.374;2023-06-26T06:45:42;13.85;;;8.98;;
22679;SDS011;11507;44.858;10.374;2023-06-26T06:48:08;13.02;;;9.55;;
22679;SDS011;11507;44.858;10.374;2023-06-26T06:50:33;16.83;;;9.95;;
22679;SDS011;11507;44.858;10.374;2023-06-26T06:52:59;15.93;;;10.50;;
22679;SDS011;11507;44.858;10.374;2023-06-26T06:55:25;13.95;;;9.77;;
22679;SDS011;11507;44.858;10.374;2023-06-26T06:57:51;12.77;;;10.07;;
22679;SDS011;11507;44.858;10.374;2023-06-26T07:00:17;15.82;;;10.45;;
22679;SDS011;11507;44.858;10.374;2023-06-26T07:02:44;14.35;;;9.45;;
22679;SDS011;11507;44.858;10.374;2023-06-26T07:05:11;17.08;;;10.02;;
22679;SDS011;11507;44.858;10.374;2023-06-26T07:07:39;12.68;;;9.98;;
22679;SDS011;11507;44.858;10.374;2023-06-26T07:10:06;13.13;;;9.73;;
22679;SDS011;11507;44.858;10.374;2023-06-26T07:12:34;15.68;;;9.90;;
22679;SDS011;11507;44.858;10.374;2023-06-26T07:15:01;11.20;;;9.15;;
22679;SDS011;11507;44.858;10.374;2023-06-26T07:17:30;16.48;;;10.50;;
22679;SDS011;11507;44.858;10.374;2023-06-26T07:19:56;15.32;;;8.93;;
22679;SDS011;11507;44.858;10.374;2023-06-26T07:22:22;17.13;;;10.35;;
22679;SDS011;11507;44.858;10.374;2023-06-26T07:24:48;15.35;;;9.68;;
22679;SDS011;11507;44.858;10.374;2023-06-26T07:27:15;11.75;;;9.23;;
22679;SDS011;11507;44.858;10.374;2023-06-26T07:29:42;13.15;;;9.50;;
22679;SDS011;11507;44.858;10.374;2023-06-26T07:32:08;13.75;;;9.40;;
22679;SDS011;11507;44.858;10.374;2023-06-26T07:34:34;14.73;;;9.05;;
22679;SDS011;11507;44.858;10.374;2023-06-26T07:37:00;13.98;;;9.10;;
22679;SDS011;11507;44.858;10.374;2023-06-26T07:39:28;11.50;;;8.55;;
22679;SDS011;11507;44.858;10.374;2023-06-26T07:41:54;14.70;;;9.07;;
22679;SDS011;11507;44.858;10.374;2023-06-26T07:44:21;13.32;;;9.13;;
22679;SDS011;11507;44.858;10.374;2023-06-26T07:46:47;12.80;;;8.65;;
22679;SDS011;11507;44.858;10.374;2023-06-26T07:49:13;9.77;;;7.15;;
22679;SDS011;11507;44.858;10.374;2023-06-26T07:51:39;10.38;;;7.93;;
22679;SDS011;11507;44.858;10.374;2023-06-26T07:54:05;12.82;;;7.38;;
22679;SDS011;11507;44.858;10.374;2023-06-26T07:56:34;9.75;;;6.60;;
22679;SDS011;11507;44.858;10.374;2023-06-26T07:59:17;9.30;;;6.97;;
22679;SDS011;11507;44.858;10.374;2023-06-26T08:01:46;8.73;;;6.13;;
22679;SDS011;11507;44.858;10.374;2023-06-26T08:04:11;11.68;;;7.80;;
22679;SDS011;11507;44.858;10.374;2023-06-26T08:06:37;13.20;;;8.65;;
22679;SDS011;11507;44.858;10.374;2023-06-26T08:09:06;10.23;;;7.75;;
22679;SDS011;11507;44.858;10.374;2023-06-26T08:11:33;11.85;;;7.82;;
22679;SDS011;11507;44.858;10.374;2023-06-26T08:13:59;12.35;;;7.10;;
22679;SDS011;11507;44.858;10.374;2023-06-26T08:16:25;9.90;;;6.50;;
22679;SDS011;11507;44.858;10.374;2023-06-26T08:18:51;9.13;;;6.43;;
22679;SDS011;11507;44.858;10.374;2023-06-26T08:21:17;8.98;;;5.68;;
22679;SDS011;11507;44.858;10.374;2023-06-26T08:23:42;9.13;;;5.63;;
22679;SDS011;11507;44.858;10.374;2023-06-26T08:26:08;8.80;;;5.97;;
22679;SDS011;11507;44.858;10.374;2023-06-26T08:28:34;10.55;;;7.18;;
22679;SDS011;11507;44.858;10.374;2023-06-26T08:31:00;9.82;;;6.70;;
22679;SDS011;11507;44.858;10.374;2023-06-26T08:33:26;6.88;;;5.53;;
22679;SDS011;11507;44.858;10.374;2023-06-26T08:35:51;8.02;;;6.10;;
22679;SDS011;11507;44.858;10.374;2023-06-26T08:38:17;12.35;;;5.45;;
22679;SDS011;11507;44.858;10.374;2023-06-26T08:40:47;7.47;;;5.20;;
22679;SDS011;11507;44.858;10.374;2023-06-26T08:43:13;7.78;;;5.30;;
22679;SDS011;11507;44.858;10.374;2023-06-26T08:45:39;7.75;;;5.05;;
22679;SDS011;11507;44.858;10.374;2023-06-26T08:48:07;7.20;;;5.18;;
22679;SDS011;11507;44.858;10.374;2023-06-26T08:50:34;7.35;;;5.05;;
22679;SDS011;11507;44.858;10.374;2023-06-26T08:55:38;7.95;;;5.53;;
22679;SDS011;11507;44.858;10.374;2023-06-26T08:58:07;8.65;;;6.28;;
22679;SDS011;11507;44.858;10.374;2023-06-26T09:00:33;9.48;;;5.70;;
22679;SDS011;11507;44.858;10.374;2023-06-26T09:02:59;12.38;;;6.93;;
22679;SDS011;11507;44.858;10.374;2023-06-26T09:05:26;8.18;;;6.35;;
22679;SDS011;11507;44.858;10.374;2023-06-26T09:07:52;9.88;;;6.78;;
22679;SDS011;11507;44.858;10.374;2023-06-26T09:10:21;9.32;;;6.03;;
22679;SDS011;11507;44.858;10.374;2023-06-26T09:12:47;10.93;;;5.57;;
22679;SDS011;11507;44.858;10.374;2023-06-26T09:15:19;9.55;;;5.38;;
22679;SDS011;11507;44.858;10.374;2023-06-26T09:17:45;8.63;;;4.88;;
22679;SDS011;11507;44.858;10.374;2023-06-26T09:20:13;10.05;;;5.50;;
22679;SDS011;11507;44.858;10.374;2023-06-26T09:22:41;8.48;;;5.00;;
22679;SDS011;11507;44.858;10.374;2023-06-26T09:25:08;8.60;;;5.25;;
22679;SDS011;11507;44.858;10.374;2023-06-26T09:27:35;7.28;;;4.80;;
22679;SDS011;11507;44.858;10.374;2023-06-26T09:30:04;8.77;;;4.57;;
22679;SDS011;11507;44.858;10.374;2023-06-26T09:32:34;7.10;;;4.53;;
22679;SDS011;11507;44.858;10.374;2023-06-26T09:35:04;6.13;;;4.78;;
22679;SDS011;11507;44.858;10.374;2023-06-26T09:37:30;6.55;;;4.55;;
22679;SDS011;11507;44.858;10.374;2023-06-26T09:39:56;5.85;;;4.20;;
22679;SDS011;11507;44.858;10.374;2023-06-26T09:42:21;5.20;;;4.05;;
22679;SDS011;11507;44.858;10.374;2023-06-26T09:44:49;5.50;;;4.05;;
22679;SDS011;11507;44.858;10.374;2023-06-26T09:47:16;5.53;;;4.07;;
22679;SDS011;11507;44.858;10.374;2023-06-26T09:49:45;7.28;;;4.22;;
22679;SDS011;11507;44.858;10.374;2023-06-26T09:52:15;8.80;;;4.40;;
22679;SDS011;11507;44.858;10.374;2023-06-26T09:54:47;5.75;;;4.22;;
22679;SDS011;11507;44.858;10.374;2023-06-26T09:57:13;5.70;;;3.90;;
22679;SDS011;11507;44.858;10.374;2023-06-26T09:59:44;6.70;;;4.45;;
22679;SDS011;11507;44.858;10.374;2023-06-26T10:02:12;6.68;;;4.53;;
22679;SDS011;11507;44.858;10.374;2023-06-26T10:04:38;6.50;;;4.40;;
22679;SDS011;11507;44.858;10.374;2023-06-26T10:07:05;10.80;;;4.28;;
22679;SDS011;11507;44.858;10.374;2023-06-26T10:09:33;8.77;;;4.95;;
22679;SDS011;11507;44.858;10.374;2023-06-26T10:12:15;10.30;;;5.20;;
22679;SDS011;11507;44.858;10.374;2023-06-26T10:14:46;8.05;;;4.72;;
22679;SDS011;11507;44.858;10.374;2023-06-26T10:17:15;8.50;;;4.90;;
22679;SDS011;11507;44.858;10.374;2023-06-26T10:19:44;9.32;;;5.10;;
22679;SDS011;11507;44.858;10.374;2023-06-26T10:22:11;8.45;;;4.55;;
22679;SDS011;11507;44.858;10.374;2023-06-26T10:24:40;6.40;;;4.40;;
22679;SDS011;11507;44.858;10.374;2023-06-26T10:29:44;7.38;;;4.50;;
22679;SDS011;11507;44.858;10.374;2023-06-26T10:32:18;7.63;;;4.07;;
22679;SDS011;11507;44.858;10.374;2023-06-26T10:34:45;6.38;;;4.22;;
22679;SDS011;11507;44.858;10.374;2023-06-26T10:37:11;6.88;;;4.57;;
22679;SDS011;11507;44.858;10.374;2023-06-26T10:39:51;10.82;;;4.75;;
22679;SDS011;11507;44.858;10.374;2023-06-26T10:42:28;7.40;;;4.28;;
22679;SDS011;11507;44.858;10.374;2023-06-26T10:45:13;6.13;;;4.40;;
22679;SDS011;11507;44.858;10.374;2023-06-26T10:47:41;7.10;;;4.78;;
22679;SDS011;11507;44.858;10.374;2023-06-26T10:50:25;5.80;;;4.55;;
22679;SDS011;11507;44.858;10.374;2023-06-26T10:55:35;6.97;;;4.47;;
22679;SDS011;11507;44.858;10.374;2023-06-26T10:58:01;5.70;;;4.60;;
22679;SDS011;11507;44.858;10.374;2023-06-26T11:00:28;5.70;;;4.22;;
22679;SDS011;11507;44.858;10.374;2023-06-26T11:02:54;7.63;;;5.15;;
22679;SDS011;11507;44.858;10.374;2023-06-26T11:05:27;6.53;;;4.68;;
22679;SDS011;11507;44.858;10.374;2023-06-26T11:08:06;6.65;;;4.78;;
22679;SDS011;11507;44.858;10.374;2023-06-26T11:10:53;7.83;;;4.57;;
22679;SDS011;11507;44.858;10.374;2023-06-26T11:13:24;6.72;;;4.32;;
22679;SDS011;11507;44.858;10.374;2023-06-26T11:15:51;6.28;;;4.55;;
22679;SDS011;11507;44.858;10.374;2023-06-26T11:18:18;8.18;;;4.63;;
22679;SDS011;11507;44.858;10.374;2023-06-26T11:20:44;6.78;;;4.47;;
22679;SDS011;11507;44.858;10.374;2023-06-26T11:23:10;7.57;;;4.70;;
22679;SDS011;11507;44.858;10.374;2023-06-26T11:25:37;6.45;;;4.20;;
22679;SDS011;11507;44.858;10.374;2023-06-26T11:28:04;6.40;;;4.47;;
22679;SDS011;11507;44.858;10.374;2023-06-26T11:30:33;11.63;;;4.40;;
22679;SDS011;11507;44.858;10.374;2023-06-26T11:33:02;9.20;;;4.28;;
22679;SDS011;11507;44.858;10.374;2023-06-26T11:35:29;7.07;;;4.30;;
22679;SDS011;11507;44.858;10.374;2023-06-26T11:38:01;6.13;;;4.22;;
22679;SDS011;11507;44.858;10.374;2023-06-26T11:40:35;6.18;;;4.07;;
22679;SDS011;11507;44.858;10.374;2023-06-26T11:43:02;8.00;;;4.45;;
22679;SDS011;11507;44.858;10.374;2023-06-26T11:45:29;7.97;;;4.43;;
22679;SDS011;11507;44.858;10.374;2023-06-26T11:47:56;8.15;;;4.28;;
22679;SDS011;11507;44.858;10.374;2023-06-26T11:50:23;5.63;;;4.18;;
22679;SDS011;11507;44.858;10.374;2023-06-26T11:53:08;4.82;;;3.65;;
22679;SDS011;11507;44.858;10.374;2023-06-26T11:55:40;5.50;;;3.85;;
22679;SDS011;11507;44.858;10.374;2023-06-26T11:58:07;8.95;;;3.85;;
22679;SDS011;11507;44.858;10.374;2023-06-26T12:00:33;6.75;;;4.20;;
22679;SDS011;11507;44.858;10.374;2023-06-26T12:03:00;6.43;;;3.80;;
22679;SDS011;11507;44.858;10.374;2023-06-26T12:05:28;5.07;;;3.83;;
22679;SDS011;11507;44.858;10.374;2023-06-26T12:07:54;6.57;;;3.88;;
22679;SDS011;11507;44.858;10.374;2023-06-26T12:10:22;7.65;;;3.70;;
22679;SDS011;11507;44.858;10.374;2023-06-26T12:12:48;5.50;;;3.88;;
22679;SDS011;11507;44.858;10.374;2023-06-26T12:15:15;5.75;;;3.95;;
22679;SDS011;11507;44.858;10.374;2023-06-26T12:17:41;7.18;;;3.72;;
22679;SDS011;11507;44.858;10.374;2023-06-26T12:20:20;5.90;;;3.95;;
22679;SDS011;11507;44.858;10.374;2023-06-26T12:22:48;5.25;;;4.22;;
22679;SDS011;11507;44.858;10.374;2023-06-26T12:25:14;6.55;;;3.92;;
22679;SDS011;11507;44.858;10.374;2023-06-26T12:27:40;6.82;;;3.80;;
22679;SDS011;11507;44.858;10.374;2023-06-26T12:30:06;6.07;;;3.78;;
22679;SDS011;11507;44.858;10.374;2023-06-26T12:32:34;7.50;;;3.83;;
22679;SDS011;11507;44.858;10.374;2023-06-26T12:35:00;6.35;;;4.13;;
22679;SDS011;11507;44.858;10.374;2023-06-26T12:37:26;6.05;;;4.05;;
22679;SDS011;11507;44.858;10.374;2023-06-26T12:39:53;6.03;;;4.43;;
22679;SDS011;11507;44.858;10.374;2023-06-26T12:42:22;6.22;;;4.10;;
22679;SDS011;11507;44.858;10.374;2023-06-26T12:44:52;6.22;;;4.22;;
22679;SDS011;11507;44.858;10.374;2023-06-26T12:47:25;4.68;;;3.72;;
22679;SDS011;11507;44.858;10.374;2023-06-26T12:49:52;5.88;;;4.05;;
22679;SDS011;11507;44.858;10.374;2023-06-26T12:52:18;5.60;;;4.05;;
22679;SDS011;11507;44.858;10.374;2023-06-26T12:54:45;6.38;;;4.32;;
22679;SDS011;11507;44.858;10.374;2023-06-26T12:57:12;8.68;;;4.38;;
22679;SDS011;11507;44.858;10.374;2023-06-26T12:59:41;5.93;;;4.03;;
22679;SDS011;11507;44.858;10.374;2023-06-26T13:02:08;9.88;;;4.10;;
22679;SDS011;11507;44.858;10.374;2023-06-26T13:04:36;6.20;;;4.40;;
22679;SDS011;11507;44.858;10.374;2023-06-26T13:07:05;4.93;;;3.67;;
22679;SDS011;11507;44.858;10.374;2023-06-26T13:09:32;6.10;;;4.00;;
22679;SDS011;11507;44.858;10.374;2023-06-26T13:11:58;5.45;;;4.10;;
22679;SDS011;11507;44.858;10.374;2023-06-26T13:14:25;6.43;;;4.22;;
22679;SDS011;11507;44.858;10.374;2023-06-26T13:16:51;7.72;;;3.80;;
22679;SDS011;11507;44.858;10.374;2023-06-26T13:19:17;5.97;;;4.60;;
22679;SDS011;11507;44.858;10.374;2023-06-26T13:21:43;6.20;;;4.00;;
22679;SDS011;11507;44.858;10.374;2023-06-26T13:24:11;5.85;;;3.92;;
22679;SDS011;11507;44.858;10.374;2023-06-26T13:26:36;5.68;;;4.15;;
22679;SDS011;11507;44.858;10.374;2023-06-26T13:29:02;7.70;;;4.15;;
22679;SDS011;11507;44.858;10.374;2023-06-26T13:31:28;6.25;;;4.00;;
22679;SDS011;11507;44.858;10.374;2023-06-26T13:33:56;7.13;;;4.30;;
22679;SDS011;11507;44.858;10.374;2023-06-26T13:36:23;6.03;;;4.40;;
22679;SDS011;11507;44.858;10.374;2023-06-26T13:38:50;6.50;;;4.20;;
22679;SDS011;11507;44.858;10.374;2023-06-26T13:41:24;5.00;;;4.10;;
22679;SDS011;11507;44.858;10.374;2023-06-26T13:43:50;7.93;;;4.45;;
22679;SDS011;11507;44.858;10.374;2023-06-26T13:46:17;6.00;;;4.20;;
22679;SDS011;11507;44.858;10.374;2023-06-26T13:48:43;7.40;;;3.95;;
22679;SDS011;11507;44.858;10.374;2023-06-26T13:51:10;5.53;;;4.10;;
22679;SDS011;11507;44.858;10.374;2023-06-26T13:53:37;5.95;;;3.70;;
22679;SDS011;11507;44.858;10.374;2023-06-26T13:56:03;6.65;;;4.30;;
22679;SDS011;11507;44.858;10.374;2023-06-26T13:58:29;5.20;;;4.10;;
22679;SDS011;11507;44.858;10.374;2023-06-26T14:00:58;4.90;;;4.00;;
22679;SDS011;11507;44.858;10.374;2023-06-26T14:03:25;5.30;;;3.85;;
22679;SDS011;11507;44.858;10.374;2023-06-26T14:05:53;5.35;;;4.05;;
22679;SDS011;11507;44.858;10.374;2023-06-26T14:08:19;7.68;;;4.18;;
22679;SDS011;11507;44.858;10.374;2023-06-26T14:10:44;6.55;;;3.90;;
22679;SDS011;11507;44.858;10.374;2023-06-26T14:13:10;7.00;;;4.25;;
22679;SDS011;11507;44.858;10.374;2023-06-26T14:15:40;6.15;;;4.38;;
22679;SDS011;11507;44.858;10.374;2023-06-26T14:18:06;6.07;;;4.25;;
22679;SDS011;11507;44.858;10.374;2023-06-26T14:20:33;7.25;;;4.20;;
22679;SDS011;11507;44.858;10.374;2023-06-26T14:23:01;6.20;;;4.10;;
22679;SDS011;11507;44.858;10.374;2023-06-26T14:25:27;7.72;;;4.05;;
22679;SDS011;11507;44.858;10.374;2023-06-26T14:27:54;7.82;;;4.10;;
22679;SDS011;11507;44.858;10.374;2023-06-26T14:30:22;7.20;;;4.05;;
22679;SDS011;11507;44.858;10.374;2023-06-26T14:32:48;6.05;;;4.07;;
22679;SDS011;11507;44.858;10.374;2023-06-26T14:35:14;7.80;;;3.85;;
22679;SDS011;11507;44.858;10.374;2023-06-26T14:37:40;6.40;;;4.32;;